Terminal Aerodrome Forecast
Issued by NWS Twin Cities, MN

Home | Current Version | Previous Version | Text Only | Print | Product List | Glossary On
Versions: 1 2 3 4 5 6 7 8 9 10 11 12 13 14 15 16 17 18
000
FTUS43 KMPX 301100
TAFSTC
TAF
KSTC 301139Z 3012/0112 11011KT 6SM BR OVC006
     FM301400 11012G18KT P6SM OVC008
     FM301700 12013G21KT P6SM SCT015 BKN150
     FM010000 12012KT P6SM VCSH SCT015 OVC050
      TEMPO 0102/0105 4SM -SHRA BR OVC015
     FM010800 13013KT 6SM BR OVC007=

USA.gov is the U.S. government's official web portal to all federal, state and local government web resources and services.